sensor_id;sensor_type;location;lat;lon;timestamp;P1;P2;P0
70520;PMS5003;58442;52.716;23.560;2023-02-24T00:01:49;10;9;6
70520;PMS5003;58442;52.716;23.560;2023-02-24T00:03:52;8;8;4
70520;PMS5003;58442;52.716;23.560;2023-02-24T00:06:09;13;13;8
70520;PMS5003;58442;52.716;23.560;2023-02-24T00:08:12;6;6;4
70520;PMS5003;58442;52.716;23.560;2023-02-24T00:10:13;13;10;4
70520;PMS5003;58442;52.716;23.560;2023-02-24T00:12:20;15;15;6
70520;PMS5003;58442;52.716;23.560;2023-02-24T00:14:25;12;8;7
70520;PMS5003;58442;52.716;23.560;2023-02-24T00:16:28;11;11;8
70520;PMS5003;58442;52.716;23.560;2023-02-24T00:18:30;12;10;7
70520;PMS5003;58442;52.716;23.560;2023-02-24T00:20:32;12;9;5
70520;PMS5003;58442;52.716;23.560;2023-02-24T00:22:39;12;12;9
70520;PMS5003;58442;52.716;23.560;2023-02-24T00:24:41;16;12;6
70520;PMS5003;58442;52.716;23.560;2023-02-24T00:26:42;13;13;8
70520;PMS5003;58442;52.716;23.560;2023-02-24T00:28:45;13;12;7
70520;PMS5003;58442;52.716;23.560;2023-02-24T00:30:54;4;4;3
70520;PMS5003;58442;52.716;23.560;2023-02-24T00:32:57;9;7;4
70520;PMS5003;58442;52.716;23.560;2023-02-24T00:35:01;14;13;8
70520;PMS5003;58442;52.716;23.560;2023-02-24T00:37:04;14;12;7
70520;PMS5003;58442;52.716;23.560;2023-02-24T00:39:09;11;11;7
70520;PMS5003;58442;52.716;23.560;2023-02-24T00:41:12;12;12;7
70520;PMS5003;58442;52.716;23.560;2023-02-24T00:43:15;12;12;9
70520;PMS5003;58442;52.716;23.560;2023-02-24T00:45:16;10;10;7
70520;PMS5003;58442;52.716;23.560;2023-02-24T00:47:24;11;11;7
70520;PMS5003;58442;52.716;23.560;2023-02-24T00:49:25;16;14;8
70520;PMS5003;58442;52.716;23.560;2023-02-24T00:51:27;10;10;7
70520;PMS5003;58442;52.716;23.560;2023-02-24T00:53:28;9;9;7
70520;PMS5003;58442;52.716;23.560;2023-02-24T00:55:39;9;9;7
70520;PMS5003;58442;52.716;23.560;2023-02-24T00:57:40;10;9;7
70520;PMS5003;58442;52.716;23.560;2023-02-24T00:59:42;11;11;7
70520;PMS5003;58442;52.716;23.560;2023-02-24T01:01:47;10;10;8
70520;PMS5003;58442;52.716;23.560;2023-02-24T01:03:54;12;12;7
70520;PMS5003;58442;52.716;23.560;2023-02-24T01:05:55;14;13;9
70520;PMS5003;58442;52.716;23.560;2023-02-24T01:08:00;14;14;8
70520;PMS5003;58442;52.716;23.560;2023-02-24T01:10:03;11;11;8
70520;PMS5003;58442;52.716;23.560;2023-02-24T01:12:09;15;12;7
70520;PMS5003;58442;52.716;23.560;2023-02-24T01:14:31;11;9;3
70520;PMS5003;58442;52.716;23.560;2023-02-24T01:16:34;7;7;6
70520;PMS5003;58442;52.716;23.560;2023-02-24T01:18:36;11;10;4
70520;PMS5003;58442;52.716;23.560;2023-02-24T01:20:37;14;14;8
70520;PMS5003;58442;52.716;23.560;2023-02-24T01:22:47;13;13;6
70520;PMS5003;58442;52.716;23.560;2023-02-24T01:24:52;12;11;7
70520;PMS5003;58442;52.716;23.560;2023-02-24T01:26:54;15;15;9
70520;PMS5003;58442;52.716;23.560;2023-02-24T01:28:56;19;18;7
70520;PMS5003;58442;52.716;23.560;2023-02-24T01:31:01;14;14;9
70520;PMS5003;58442;52.716;23.560;2023-02-24T01:33:05;11;11;8
70520;PMS5003;58442;52.716;23.560;2023-02-24T01:35:07;12;12;8
70520;PMS5003;58442;52.716;23.560;2023-02-24T01:37:11;14;12;8
70520;PMS5003;58442;52.716;23.560;2023-02-24T01:39:15;10;10;6
70520;PMS5003;58442;52.716;23.560;2023-02-24T01:41:18;13;12;8
70520;PMS5003;58442;52.716;23.560;2023-02-24T01:43:31;20;13;8
70520;PMS5003;58442;52.716;23.560;2023-02-24T01:45:34;13;12;9
70520;PMS5003;58442;52.716;23.560;2023-02-24T01:47:39;13;13;10
70520;PMS5003;58442;52.716;23.560;2023-02-24T01:49:43;11;10;7
70520;PMS5003;58442;52.716;23.560;2023-02-24T01:54:01;11;11;9
70520;PMS5003;58442;52.716;23.560;2023-02-24T01:56:05;13;13;8
70520;PMS5003;58442;52.716;23.560;2023-02-24T01:58:14;14;14;8
70520;PMS5003;58442;52.716;23.560;2023-02-24T02:00:21;11;11;8
70520;PMS5003;58442;52.716;23.560;2023-02-24T02:02:34;15;15;9
70520;PMS5003;58442;52.716;23.560;2023-02-24T02:04:39;12;12;7
70520;PMS5003;58442;52.716;23.560;2023-02-24T02:06:44;15;14;8
70520;PMS5003;58442;52.716;23.560;2023-02-24T02:08:48;17;15;10
70520;PMS5003;58442;52.716;23.560;2023-02-24T02:10:50;15;14;5
70520;PMS5003;58442;52.716;23.560;2023-02-24T02:12:58;15;14;9
70520;PMS5003;58442;52.716;23.560;2023-02-24T02:15:04;12;11;8
70520;PMS5003;58442;52.716;23.560;2023-02-24T02:29:10;15;15;8
70520;PMS5003;58442;52.716;23.560;2023-02-24T02:36:52;25;19;11
70520;PMS5003;58442;52.716;23.560;2023-02-24T02:43:21;16;16;10
70520;PMS5003;58442;52.716;23.560;2023-02-24T02:45:35;14;13;8
70520;PMS5003;58442;52.716;23.560;2023-02-24T02:47:58;15;12;5
70520;PMS5003;58442;52.716;23.560;2023-02-24T02:52:39;14;14;10
70520;PMS5003;58442;52.716;23.560;2023-02-24T02:54:54;11;11;6
70520;PMS5003;58442;52.716;23.560;2023-02-24T02:57:08;17;16;9
70520;PMS5003;58442;52.716;23.560;2023-02-24T02:59:15;20;16;10
70520;PMS5003;58442;52.716;23.560;2023-02-24T03:01:23;16;16;9
70520;PMS5003;58442;52.716;23.560;2023-02-24T03:05:45;19;19;12
70520;PMS5003;58442;52.716;23.560;2023-02-24T03:07:51;17;17;9
70520;PMS5003;58442;52.716;23.560;2023-02-24T03:10:00;17;16;10
70520;PMS5003;58442;52.716;23.560;2023-02-24T03:12:13;18;17;8
70520;PMS5003;58442;52.716;23.560;2023-02-24T03:14:18;13;13;7
70520;PMS5003;58442;52.716;23.560;2023-02-24T03:16:24;15;15;9
70520;PMS5003;58442;52.716;23.560;2023-02-24T03:18:31;22;20;12
70520;PMS5003;58442;52.716;23.560;2023-02-24T03:20:36;18;17;9
70520;PMS5003;58442;52.716;23.560;2023-02-24T03:25:00;18;18;10
70520;PMS5003;58442;52.716;23.560;2023-02-24T03:29:37;17;15;10
70520;PMS5003;58442;52.716;23.560;2023-02-24T03:32:04;12;12;6
70520;PMS5003;58442;52.716;23.560;2023-02-24T03:34:20;18;18;10
70520;PMS5003;58442;52.716;23.560;2023-02-24T03:36:28;18;18;10
70520;PMS5003;58442;52.716;23.560;2023-02-24T03:38:30;15;14;10
70520;PMS5003;58442;52.716;23.560;2023-02-24T03:40:37;23;21;10
70520;PMS5003;58442;52.716;23.560;2023-02-24T03:42:44;17;17;9
70520;PMS5003;58442;52.716;23.560;2023-02-24T03:44:56;19;18;10
70520;PMS5003;58442;52.716;23.560;2023-02-24T03:46:59;16;16;10
70520;PMS5003;58442;52.716;23.560;2023-02-24T03:49:06;18;18;9
70520;PMS5003;58442;52.716;23.560;2023-02-24T03:51:16;17;16;10
70520;PMS5003;58442;52.716;23.560;2023-02-24T03:54:08;15;15;8
70520;PMS5003;58442;52.716;23.560;2023-02-24T04:00:16;15;15;7
70520;PMS5003;58442;52.716;23.560;2023-02-24T04:02:36;18;18;10
70520;PMS5003;58442;52.716;23.560;2023-02-24T04:04:44;22;18;10
70520;PMS5003;58442;52.716;23.560;2023-02-24T04:09:13;22;20;12
70520;PMS5003;58442;52.716;23.560;2023-02-24T04:11:24;23;22;13
70520;PMS5003;58442;52.716;23.560;2023-02-24T04:13:32;18;18;10
70520;PMS5003;58442;52.716;23.560;2023-02-24T04:15:40;14;14;10
70520;PMS5003;58442;52.716;23.560;2023-02-24T04:17:48;20;20;11
70520;PMS5003;58442;52.716;23.560;2023-02-24T04:19:56;19;17;10
70520;PMS5003;58442;52.716;23.560;2023-02-24T04:22:11;14;14;10
70520;PMS5003;58442;52.716;23.560;2023-02-24T04:24:16;16;15;7
70520;PMS5003;58442;52.716;23.560;2023-02-24T04:26:23;21;20;12
70520;PMS5003;58442;52.716;23.560;2023-02-24T04:28:26;18;17;12
70520;PMS5003;58442;52.716;23.560;2023-02-24T04:30:30;20;20;9
70520;PMS5003;58442;52.716;23.560;2023-02-24T04:32:35;19;17;9
70520;PMS5003;58442;52.716;23.560;2023-02-24T04:34:40;19;17;10
70520;PMS5003;58442;52.716;23.560;2023-02-24T04:36:42;24;22;11
70520;PMS5003;58442;52.716;23.560;2023-02-24T04:38:51;15;13;8
70520;PMS5003;58442;52.716;23.560;2023-02-24T04:40:54;21;18;9
70520;PMS5003;58442;52.716;23.560;2023-02-24T04:42:56;18;16;8
70520;PMS5003;58442;52.716;23.560;2023-02-24T04:44:58;17;17;10
70520;PMS5003;58442;52.716;23.560;2023-02-24T04:46:59;21;18;11
70520;PMS5003;58442;52.716;23.560;2023-02-24T04:49:01;19;19;12
70520;PMS5003;58442;52.716;23.560;2023-02-24T04:51:10;25;25;12
70520;PMS5003;58442;52.716;23.560;2023-02-24T04:53:14;20;20;12
70520;PMS5003;58442;52.716;23.560;2023-02-24T04:55:17;21;20;11
70520;PMS5003;58442;52.716;23.560;2023-02-24T04:57:21;18;18;11
70520;PMS5003;58442;52.716;23.560;2023-02-24T04:59:25;24;23;13
70520;PMS5003;58442;52.716;23.560;2023-02-24T05:01:28;23;20;11
70520;PMS5003;58442;52.716;23.560;2023-02-24T05:03:31;22;19;12
70520;PMS5003;58442;52.716;23.560;2023-02-24T05:05:32;22;18;10
70520;PMS5003;58442;52.716;23.560;2023-02-24T05:07:40;24;24;14
70520;PMS5003;58442;52.716;23.560;2023-02-24T05:09:47;20;19;12
70520;PMS5003;58442;52.716;23.560;2023-02-24T05:11:49;22;20;12
70520;PMS5003;58442;52.716;23.560;2023-02-24T05:13:52;19;18;12
70520;PMS5003;58442;52.716;23.560;2023-02-24T05:15:56;18;17;9
70520;PMS5003;58442;52.716;23.560;2023-02-24T05:18:03;26;22;12
70520;PMS5003;58442;52.716;23.560;2023-02-24T05:20:09;24;20;13
70520;PMS5003;58442;52.716;23.560;2023-02-24T05:22:23;26;26;15
70520;PMS5003;58442;52.716;23.560;2023-02-24T05:24:25;29;27;11
70520;PMS5003;58442;52.716;23.560;2023-02-24T05:26:35;20;20;12
70520;PMS5003;58442;52.716;23.560;2023-02-24T05:28:38;26;21;12
70520;PMS5003;58442;52.716;23.560;2023-02-24T05:30:40;29;26;14
70520;PMS5003;58442;52.716;23.560;2023-02-24T05:32:41;21;21;12
70520;PMS5003;58442;52.716;23.560;2023-02-24T05:34:49;24;22;13
70520;PMS5003;58442;52.716;23.560;2023-02-24T05:36:51;21;20;7
70520;PMS5003;58442;52.716;23.560;2023-02-24T05:38:53;25;24;13
70520;PMS5003;58442;52.716;23.560;2023-02-24T05:41:04;17;17;10
70520;PMS5003;58442;52.716;23.560;2023-02-24T05:43:17;17;17;9
70520;PMS5003;58442;52.716;23.560;2023-02-24T05:45:26;22;19;11
70520;PMS5003;58442;52.716;23.560;2023-02-24T05:47:29;25;24;12
70520;PMS5003;58442;52.716;23.560;2023-02-24T05:49:33;10;10;6
70520;PMS5003;58442;52.716;23.560;2023-02-24T05:51:36;24;23;12
70520;PMS5003;58442;52.716;23.560;2023-02-24T05:53:42;23;23;13
70520;PMS5003;58442;52.716;23.560;2023-02-24T05:55:43;26;24;14
70520;PMS5003;58442;52.716;23.560;2023-02-24T05:57:45;17;17;7
70520;PMS5003;58442;52.716;23.560;2023-02-24T05:59:47;28;28;15
70520;PMS5003;58442;52.716;23.560;2023-02-24T06:01:56;24;23;13
70520;PMS5003;58442;52.716;23.560;2023-02-24T06:04:00;27;27;14
70520;PMS5003;58442;52.716;23.560;2023-02-24T06:06:06;24;23;12
70520;PMS5003;58442;52.716;23.560;2023-02-24T06:08:09;24;22;14
70520;PMS5003;58442;52.716;23.560;2023-02-24T06:10:13;25;23;11
70520;PMS5003;58442;52.716;23.560;2023-02-24T06:12:15;29;26;15
70520;PMS5003;58442;52.716;23.560;2023-02-24T06:14:17;24;24;13
70520;PMS5003;58442;52.716;23.560;2023-02-24T06:16:21;18;18;13
70520;PMS5003;58442;52.716;23.560;2023-02-24T06:18:26;33;31;17
70520;PMS5003;58442;52.716;23.560;2023-02-24T06:20:28;27;25;16
70520;PMS5003;58442;52.716;23.560;2023-02-24T06:22:32;33;28;16
70520;PMS5003;58442;52.716;23.560;2023-02-24T06:24:41;33;30;15
70520;PMS5003;58442;52.716;23.560;2023-02-24T06:26:45;31;28;16
70520;PMS5003;58442;52.716;23.560;2023-02-24T06:29:02;25;25;16
70520;PMS5003;58442;52.716;23.560;2023-02-24T06:31:05;26;26;13
70520;PMS5003;58442;52.716;23.560;2023-02-24T06:33:06;18;16;8
70520;PMS5003;58442;52.716;23.560;2023-02-24T06:35:08;25;24;13
70520;PMS5003;58442;52.716;23.560;2023-02-24T06:37:18;32;29;15
70520;PMS5003;58442;52.716;23.560;2023-02-24T06:39:19;19;18;10
70520;PMS5003;58442;52.716;23.560;2023-02-24T06:41:21;26;24;11
70520;PMS5003;58442;52.716;23.560;2023-02-24T06:43:23;29;27;14
70520;PMS5003;58442;52.716;23.560;2023-02-24T06:45:33;28;26;16
70520;PMS5003;58442;52.716;23.560;2023-02-24T06:47:35;27;26;16
70520;PMS5003;58442;52.716;23.560;2023-02-24T06:49:36;29;27;15
70520;PMS5003;58442;52.716;23.560;2023-02-24T06:51:38;25;18;13
70520;PMS5003;58442;52.716;23.560;2023-02-24T06:53:49;22;22;13
70520;PMS5003;58442;52.716;23.560;2023-02-24T06:55:51;26;25;12
70520;PMS5003;58442;52.716;23.560;2023-02-24T06:57:53;29;28;15
70520;PMS5003;58442;52.716;23.560;2023-02-24T06:59:56;29;27;15
70520;PMS5003;58442;52.716;23.560;2023-02-24T07:02:04;25;25;14
70520;PMS5003;58442;52.716;23.560;2023-02-24T07:04:07;28;27;14
70520;PMS5003;58442;52.716;23.560;2023-02-24T07:06:17;32;27;15
70520;PMS5003;58442;52.716;23.560;2023-02-24T07:08:23;25;24;14
70520;PMS5003;58442;52.716;23.560;2023-02-24T07:10:27;27;24;12
70520;PMS5003;58442;52.716;23.560;2023-02-24T07:12:29;26;25;16
70520;PMS5003;58442;52.716;23.560;2023-02-24T07:14:30;26;22;9
70520;PMS5003;58442;52.716;23.560;2023-02-24T07:16:32;35;31;15
70520;PMS5003;58442;52.716;23.560;2023-02-24T07:18:38;29;29;16
70520;PMS5003;58442;52.716;23.560;2023-02-24T07:20:41;25;24;13
70520;PMS5003;58442;52.716;23.560;2023-02-24T07:22:46;25;24;13
70520;PMS5003;58442;52.716;23.560;2023-02-24T07:24:47;32;29;15
70520;PMS5003;58442;52.716;23.560;2023-02-24T07:26:54;32;31;15
70520;PMS5003;58442;52.716;23.560;2023-02-24T07:28:57;23;22;13
70520;PMS5003;58442;52.716;23.560;2023-02-24T07:30:59;32;30;17
70520;PMS5003;58442;52.716;23.560;2023-02-24T07:33:01;35;31;17
70520;PMS5003;58442;52.716;23.560;2023-02-24T07:35:08;31;26;9
70520;PMS5003;58442;52.716;23.560;2023-02-24T07:37:09;32;29;17
70520;PMS5003;58442;52.716;23.560;2023-02-24T07:39:12;38;34;17
70520;PMS5003;58442;52.716;23.560;2023-02-24T07:41:15;32;30;15
70520;PMS5003;58442;52.716;23.560;2023-02-24T07:43:23;28;23;13
70520;PMS5003;58442;52.716;23.560;2023-02-24T07:45:27;36;32;15
70520;PMS5003;58442;52.716;23.560;2023-02-24T07:47:29;33;31;17
70520;PMS5003;58442;52.716;23.560;2023-02-24T07:49:32;33;32;17
70520;PMS5003;58442;52.716;23.560;2023-02-24T07:51:40;39;35;15
70520;PMS5003;58442;52.716;23.560;2023-02-24T07:53:42;36;30;18
70520;PMS5003;58442;52.716;23.560;2023-02-24T07:55:45;40;30;17
70520;PMS5003;58442;52.716;23.560;2023-02-24T07:57:46;33;29;18
70520;PMS5003;58442;52.716;23.560;2023-02-24T07:59:55;31;30;19
70520;PMS5003;58442;52.716;23.560;2023-02-24T08:01:56;31;31;16
70520;PMS5003;58442;52.716;23.560;2023-02-24T08:03:59;33;30;16
70520;PMS5003;58442;52.716;23.560;2023-02-24T08:06:01;32;31;18
70520;PMS5003;58442;52.716;23.560;2023-02-24T08:08:13;34;29;13
70520;PMS5003;58442;52.716;23.560;2023-02-24T08:10:20;39;35;17
70520;PMS5003;58442;52.716;23.560;2023-02-24T08:12:24;32;28;15
70520;PMS5003;58442;52.716;23.560;2023-02-24T08:14:27;27;27;17
70520;PMS5003;58442;52.716;23.560;2023-02-24T08:16:34;37;33;20
70520;PMS5003;58442;52.716;23.560;2023-02-24T08:18:51;28;25;18
70520;PMS5003;58442;52.716;23.560;2023-02-24T08:20:57;30;27;13
70520;PMS5003;58442;52.716;23.560;2023-02-24T08:23:04;31;29;12
70520;PMS5003;58442;52.716;23.560;2023-02-24T08:25:39;36;29;14
70520;PMS5003;58442;52.716;23.560;2023-02-24T08:27:45;32;30;17
70520;PMS5003;58442;52.716;23.560;2023-02-24T08:29:56;32;29;18
70520;PMS5003;58442;52.716;23.560;2023-02-24T08:31:59;42;35;19
70520;PMS5003;58442;52.716;23.560;2023-02-24T08:34:00;43;32;17
70520;PMS5003;58442;52.716;23.560;2023-02-24T08:36:02;42;33;15
70520;PMS5003;58442;52.716;23.560;2023-02-24T08:38:09;44;38;18
70520;PMS5003;58442;52.716;23.560;2023-02-24T08:40:17;34;31;17
70520;PMS5003;58442;52.716;23.560;2023-02-24T08:42:39;45;34;19
70520;PMS5003;58442;52.716;23.560;2023-02-24T08:44:41;40;34;19
70520;PMS5003;58442;52.716;23.560;2023-02-24T08:46:48;42;29;16
70520;PMS5003;58442;52.716;23.560;2023-02-24T08:48:51;34;32;19
70520;PMS5003;58442;52.716;23.560;2023-02-24T08:51:02;39;33;16
70520;PMS5003;58442;52.716;23.560;2023-02-24T08:53:16;32;30;18
70520;PMS5003;58442;52.716;23.560;2023-02-24T08:55:18;33;31;16
70520;PMS5003;58442;52.716;23.560;2023-02-24T08:57:27;41;31;16
70520;PMS5003;58442;52.716;23.560;2023-02-24T08:59:29;39;28;16
70520;PMS5003;58442;52.716;23.560;2023-02-24T09:01:44;40;32;15
70520;PMS5003;58442;52.716;23.560;2023-02-24T09:04:01;48;36;18
70520;PMS5003;58442;52.716;23.560;2023-02-24T09:06:07;43;36;16
70520;PMS5003;58442;52.716;23.560;2023-02-24T09:08:08;45;35;18
70520;PMS5003;58442;52.716;23.560;2023-02-24T09:10:14;32;29;16
70520;PMS5003;58442;52.716;23.560;2023-02-24T09:12:19;48;32;17
70520;PMS5003;58442;52.716;23.560;2023-02-24T09:14:42;28;24;17
70520;PMS5003;58442;52.716;23.560;2023-02-24T09:16:44;37;32;18
70520;PMS5003;58442;52.716;23.560;2023-02-24T09:19:00;36;32;16
70520;PMS5003;58442;52.716;23.560;2023-02-24T09:21:13;31;27;15
70520;PMS5003;58442;52.716;23.560;2023-02-24T09:23:27;32;28;16
70520;PMS5003;58442;52.716;23.560;2023-02-24T09:25:40;37;32;17
70520;PMS5003;58442;52.716;23.560;2023-02-24T09:27:50;41;35;18
70520;PMS5003;58442;52.716;23.560;2023-02-24T09:30:11;33;32;18
70520;PMS5003;58442;52.716;23.560;2023-02-24T09:32:31;33;30;14
70520;PMS5003;58442;52.716;23.560;2023-02-24T09:34:34;30;28;14
70520;PMS5003;58442;52.716;23.560;2023-02-24T09:36:43;24;22;16
70520;PMS5003;58442;52.716;23.560;2023-02-24T09:38:57;29;27;14
70520;PMS5003;58442;52.716;23.560;2023-02-24T09:41:19;33;30;15
70520;PMS5003;58442;52.716;23.560;2023-02-24T09:43:38;27;26;13
70520;PMS5003;58442;52.716;23.560;2023-02-24T09:45:51;27;27;16
70520;PMS5003;58442;52.716;23.560;2023-02-24T09:48:01;22;21;15
70520;PMS5003;58442;52.716;23.560;2023-02-24T09:52:39;32;29;17
70520;PMS5003;58442;52.716;23.560;2023-02-24T09:54:45;25;24;15
70520;PMS5003;58442;52.716;23.560;2023-02-24T09:57:02;31;27;15
70520;PMS5003;58442;52.716;23.560;2023-02-24T10:03:42;22;22;14
70520;PMS5003;58442;52.716;23.560;2023-02-24T10:05:51;28;25;14
70520;PMS5003;58442;52.716;23.560;2023-02-24T10:07:58;23;22;13
70520;PMS5003;58442;52.716;23.560;2023-02-24T10:10:10;35;29;16
70520;PMS5003;58442;52.716;23.560;2023-02-24T10:12:30;29;28;15
70520;PMS5003;58442;52.716;23.560;2023-02-24T10:19:30;26;24;14
70520;PMS5003;58442;52.716;23.560;2023-02-24T10:21:38;25;25;16
70520;PMS5003;58442;52.716;23.560;2023-02-24T10:23:55;28;26;14
70520;PMS5003;58442;52.716;23.560;2023-02-24T10:33:16;27;26;13
70520;PMS5003;58442;52.716;23.560;2023-02-24T10:35:26;24;23;14
70520;PMS5003;58442;52.716;23.560;2023-02-24T10:37:33;21;20;15
70520;PMS5003;58442;52.716;23.560;2023-02-24T10:39:34;33;29;17
70520;PMS5003;58442;52.716;23.560;2023-02-24T10:43:52;23;23;15
70520;PMS5003;58442;52.716;23.560;2023-02-24T10:46:01;27;25;13
70520;PMS5003;58442;52.716;23.560;2023-02-24T10:48:22;23;23;12
70520;PMS5003;58442;52.716;23.560;2023-02-24T10:52:34;19;19;12
70520;PMS5003;58442;52.716;23.560;2023-02-24T10:54:50;26;24;13
70520;PMS5003;58442;52.716;23.560;2023-02-24T10:57:06;25;23;13
70520;PMS5003;58442;52.716;23.560;2023-02-24T10:59:24;23;23;14
70520;PMS5003;58442;52.716;23.560;2023-02-24T11:01:37;19;18;11
70520;PMS5003;58442;52.716;23.560;2023-02-24T11:03:53;21;20;11
70520;PMS5003;58442;52.716;23.560;2023-02-24T11:08:34;23;20;12
70520;PMS5003;58442;52.716;23.560;2023-02-24T11:10:47;25;24;14
70520;PMS5003;58442;52.716;23.560;2023-02-24T11:13:11;24;24;14
70520;PMS5003;58442;52.716;23.560;2023-02-24T11:15:32;35;24;13
70520;PMS5003;58442;52.716;23.560;2023-02-24T11:17:53;21;21;10
70520;PMS5003;58442;52.716;23.560;2023-02-24T11:22:14;22;18;11
70520;PMS5003;58442;52.716;23.560;2023-02-24T11:24:19;18;18;9
70520;PMS5003;58442;52.716;23.560;2023-02-24T11:26:25;24;23;12
70520;PMS5003;58442;52.716;23.560;2023-02-24T11:28:45;25;25;16
70520;PMS5003;58442;52.716;23.560;2023-02-24T11:31:07;23;23;14
70520;PMS5003;58442;52.716;23.560;2023-02-24T11:33:25;21;20;11
70520;PMS5003;58442;52.716;23.560;2023-02-24T11:40:01;18;17;11
70520;PMS5003;58442;52.716;23.560;2023-02-24T11:42:19;21;20;14
70520;PMS5003;58442;52.716;23.560;2023-02-24T11:48:52;21;21;14
70520;PMS5003;58442;52.716;23.560;2023-02-24T11:51:01;15;15;10
70520;PMS5003;58442;52.716;23.560;2023-02-24T11:55:28;26;25;14
70520;PMS5003;58442;52.716;23.560;2023-02-24T11:57:39;20;20;13
70520;PMS5003;58442;52.716;23.560;2023-02-24T11:59:47;17;17;10
70520;PMS5003;58442;52.716;23.560;2023-02-24T12:07:24;21;20;12
70520;PMS5003;58442;52.716;23.560;2023-02-24T12:09:01;27;26;12
70520;PMS5003;58442;52.716;23.560;2023-02-24T12:22:48;17;17;11
70520;PMS5003;58442;52.716;23.560;2023-02-24T12:24:55;27;27;14
70520;PMS5003;58442;52.716;23.560;2023-02-24T12:33:59;25;24;14
70520;PMS5003;58442;52.716;23.560;2023-02-24T12:36:24;23;22;13
70520;PMS5003;58442;52.716;23.560;2023-02-24T12:55:12;23;23;14
70520;PMS5003;58442;52.716;23.560;2023-02-24T12:59:50;18;18;11
70520;PMS5003;58442;52.716;23.560;2023-02-24T13:10:50;23;21;12
70520;PMS5003;58442;52.716;23.560;2023-02-24T13:17:23;25;23;11
70520;PMS5003;58442;52.716;23.560;2023-02-24T13:19:29;22;21;10
70520;PMS5003;58442;52.716;23.560;2023-02-24T13:21:32;24;23;14
70520;PMS5003;58442;52.716;23.560;2023-02-24T13:23:34;22;20;9
70520;PMS5003;58442;52.716;23.560;2023-02-24T13:25:40;28;24;14
70520;PMS5003;58442;52.716;23.560;2023-02-24T13:27:41;23;22;11
70520;PMS5003;58442;52.716;23.560;2023-02-24T13:29:44;25;23;14
70520;PMS5003;58442;52.716;23.560;2023-02-24T13:31:51;21;21;11
70520;PMS5003;58442;52.716;23.560;2023-02-24T13:33:53;21;21;11
70520;PMS5003;58442;52.716;23.560;2023-02-24T13:40:23;24;24;16
70520;PMS5003;58442;52.716;23.560;2023-02-24T13:42:29;26;23;15
70520;PMS5003;58442;52.716;23.560;2023-02-24T13:44:31;29;28;14
70520;PMS5003;58442;52.716;23.560;2023-02-24T13:46:47;30;28;15
70520;PMS5003;58442;52.716;23.560;2023-02-24T13:48:49;18;18;11
70520;PMS5003;58442;52.716;23.560;2023-02-24T13:55:28;27;25;13
70520;PMS5003;58442;52.716;23.560;2023-02-24T13:57:52;23;23;12
70520;PMS5003;58442;52.716;23.560;2023-02-24T14:02:27;20;20;13
70520;PMS5003;58442;52.716;23.560;2023-02-24T14:04:31;21;21;12
70520;PMS5003;58442;52.716;23.560;2023-02-24T14:06:35;21;20;14
70520;PMS5003;58442;52.716;23.560;2023-02-24T14:10:48;21;21;13
70520;PMS5003;58442;52.716;23.560;2023-02-24T14:13:06;22;21;11
70520;PMS5003;58442;52.716;23.560;2023-02-24T14:15:25;31;26;14
70520;PMS5003;58442;52.716;23.560;2023-02-24T14:17:32;20;19;12
70520;PMS5003;58442;52.716;23.560;2023-02-24T14:19:35;21;20;13
70520;PMS5003;58442;52.716;23.560;2023-02-24T14:21:37;21;20;12
70520;PMS5003;58442;52.716;23.560;2023-02-24T14:23:39;21;20;11
70520;PMS5003;58442;52.716;23.560;2023-02-24T14:25:41;23;21;9
70520;PMS5003;58442;52.716;23.560;2023-02-24T14:27:43;18;16;12
70520;PMS5003;58442;52.716;23.560;2023-02-24T14:29:46;22;20;13
70520;PMS5003;58442;52.716;23.560;2023-02-24T14:31:54;21;20;9
70520;PMS5003;58442;52.716;23.560;2023-02-24T14:33:57;20;19;12
70520;PMS5003;58442;52.716;23.560;2023-02-24T14:36:02;21;21;11
70520;PMS5003;58442;52.716;23.560;2023-02-24T14:38:06;19;19;12
70520;PMS5003;58442;52.716;23.560;2023-02-24T14:40:14;18;18;9
70520;PMS5003;58442;52.716;23.560;2023-02-24T14:42:17;11;11;7
70520;PMS5003;58442;52.716;23.560;2023-02-24T14:44:23;13;13;9
70520;PMS5003;58442;52.716;23.560;2023-02-24T14:46:26;19;19;10
70520;PMS5003;58442;52.716;23.560;2023-02-24T14:48:28;18;18;11
70520;PMS5003;58442;52.716;23.560;2023-02-24T14:50:31;21;21;13
70520;PMS5003;58442;52.716;23.560;2023-02-24T14:57:02;23;23;14
70520;PMS5003;58442;52.716;23.560;2023-02-24T14:59:06;30;28;15
70520;PMS5003;58442;52.716;23.560;2023-02-24T15:01:28;31;26;15
70520;PMS5003;58442;52.716;23.560;2023-02-24T15:05:53;23;23;16
70520;PMS5003;58442;52.716;23.560;2023-02-24T15:07:58;26;25;15
70520;PMS5003;58442;52.716;23.560;2023-02-24T15:10:02;30;27;14
70520;PMS5003;58442;52.716;23.560;2023-02-24T15:14:24;67;49;27
70520;PMS5003;58442;52.716;23.560;2023-02-24T15:16:32;118;85;36
70520;PMS5003;58442;52.716;23.560;2023-02-24T15:18:43;61;44;25
70520;PMS5003;58442;52.716;23.560;2023-02-24T15:23:03;34;28;15
70520;PMS5003;58442;52.716;23.560;2023-02-24T15:27:26;36;32;15
70520;PMS5003;58442;52.716;23.560;2023-02-24T15:29:29;53;44;28
70520;PMS5003;58442;52.716;23.560;2023-02-24T15:31:31;61;48;29
70520;PMS5003;58442;52.716;23.560;2023-02-24T15:33:36;30;30;19
70520;PMS5003;58442;52.716;23.560;2023-02-24T15:35:45;48;40;24
70520;PMS5003;58442;52.716;23.560;2023-02-24T15:37:49;42;34;21
70520;PMS5003;58442;52.716;23.560;2023-02-24T15:40:02;38;34;20
70520;PMS5003;58442;52.716;23.560;2023-02-24T15:44:25;23;23;15
70520;PMS5003;58442;52.716;23.560;2023-02-24T15:46:39;31;27;15
70520;PMS5003;58442;52.716;23.560;2023-02-24T15:48:41;44;29;17
70520;PMS5003;58442;52.716;23.560;2023-02-24T15:50:43;17;14;9
70520;PMS5003;58442;52.716;23.560;2023-02-24T15:52:45;17;16;10
70520;PMS5003;58442;52.716;23.560;2023-02-24T15:54:54;19;18;11
70520;PMS5003;58442;52.716;23.560;2023-02-24T15:57:01;45;37;19
70520;PMS5003;58442;52.716;23.560;2023-02-24T15:59:05;44;32;20
70520;PMS5003;58442;52.716;23.560;2023-02-24T16:01:07;57;45;22
70520;PMS5003;58442;52.716;23.560;2023-02-24T16:03:13;26;25;12
70520;PMS5003;58442;52.716;23.560;2023-02-24T16:05:14;50;42;25
70520;PMS5003;58442;52.716;23.560;2023-02-24T16:07:18;31;30;20
70520;PMS5003;58442;52.716;23.560;2023-02-24T16:09:29;20;20;13
70520;PMS5003;58442;52.716;23.560;2023-02-24T16:11:36;15;15;10